Main page
METAR-TAF:

METAR-TAF

Airports :

Piacenza, Italy

Piacenza Air Base

latitude: 44-55N, longitude: 009-44E, elevation: 134 m

Current weather observation

The report was made 3 hours and 5 minutes ago, at 17:55 UTC
Wind 3 kt from the West/Southwest
Temperature 1°C
Humidity 100%
Pressure 1007 hPa
Visibility: 8000 m

METAR: LIMS 201755Z 24003KT 8000 NSC 01/01 Q1007 RMK SCT SCT100 VIS MIN 8000 WIND THR30 21002KT BLU

Time: 22:00 (21:00 UTC)


TAF: missing

Weather observations and forecasts of more than 4000 airports (METAR and TAF reports).

The available stations are represented by yellow and red dots on the map.

Hover mouse over dot to see the name of the station.

Then click to see weather observations and forecasts.

To change the map : click on the green buttons with a black cross to zoom in, on the green button with a dash to zoom out, or on the green arrows for adjacent maps.


METAR-TAF: